Time;durP1;ratioP1;P1;durP2;ratioP2;P2;SDS_P1;SDS_P2;PMS_P1;PMS_P2;Temp;Humidity;BMP_temperature;BMP_pressure;BME280_temperature;BME280_humidity;BME280_pressure;Samples;Min_cycle;Max_cycle;Signal;HPM_P1;HPM_P2
2021/12/30 00:00:40;;;;;;;;;;;;;;;12.73;88.56;101099.03;5033447;28;19971;-54
2021/12/30 00:03:08;;;;;;;;;;;;;;;12.66;88.86;101106.88;5033612;28;20323;-53
2021/12/30 00:05:35;;;;;;;;;;;;;;;12.59;88.75;101095.13;5033485;28;20273;-54
2021/12/30 00:08:02;;;;;;;;;;;;;;;12.54;88.91;101088.38;5033928;28;20028;-55
2021/12/30 00:10:29;;;;;;;;;;;;;;;12.51;89.06;101093.69;5033343;28;19968;-53
2021/12/30 00:12:57;;;;;;;;;;;;;;;12.47;88.98;101096.22;5033370;28;19956;-54
2021/12/30 00:15:24;;;;;;;;;;;;;;;12.46;89.18;101086.16;5042247;28;20337;-53
2021/12/30 00:17:51;;;;;;;;;;;;;;;12.41;89.08;101088.09;5033445;28;20341;-54
2021/12/30 00:20:18;;;;;;;;;;;;;;;12.40;89.23;101084.47;5043544;28;20424;-53
2021/12/30 00:22:45;;;;;;;;;;;;;;;12.34;89.41;101079.97;5052762;28;19921;-54
2021/12/30 00:25:12;;;;;;;;;;;;;;;12.31;89.33;101078.59;5051998;28;19975;-53
2021/12/30 00:27:39;;;;;;;;;;;;;;;12.31;89.25;101078.59;5043578;28;20011;-55
2021/12/30 00:30:07;;;;;;;;;;;;;;;12.28;89.33;101073.56;5033243;28;20020;-51
2021/12/30 00:32:34;;;;;;;;;;;;;;;12.26;89.56;101069.34;5033159;28;20024;-52
2021/12/30 00:35:01;;;;;;;;;;;;;;;12.25;89.33;101073.28;5032031;28;20027;-56
2021/12/30 00:37:28;;;;;;;;;;;;;;;12.27;89.37;101071.00;5033092;28;20025;-55
2021/12/30 00:39:55;;;;;;;;;;;;;;;12.26;89.34;101074.94;5034406;28;20420;-54
2021/12/30 00:42:22;;;;;;;;;;;;;;;12.22;89.47;101073.81;5052107;28;20019;-51
2021/12/30 00:44:48;;;;;;;;;;;;;;;12.18;89.45;101072.72;5052678;28;20273;-56
2021/12/30 00:47:15;;;;;;;;;;;;;;;12.14;89.60;101077.19;5043235;28;20281;-53
2021/12/30 00:49:42;;;;;;;;;;;;;;;12.13;89.66;101064.28;5032737;28;20012;-54
2021/12/30 00:52:08;;;;;;;;;;;;;;;12.09;89.63;101067.66;5032738;28;20011;-52
2021/12/30 00:54:35;;;;;;;;;;;;;;;12.09;89.70;101070.44;5039252;28;20008;-53
2021/12/30 00:57:02;;;;;;;;;;;;;;;12.05;89.92;101062.88;5052832;28;20015;-55
2021/12/30 00:59:28;;;;;;;;;;;;;;;11.98;90.11;101056.72;5050446;28;20035;-53
2021/12/30 01:01:55;;;;;;;;;;;;;;;11.93;90.37;101059.50;5052361;28;19999;-52
2021/12/30 01:04:22;;;;;;;;;;;;;;;11.87;90.38;101058.66;5052606;28;20023;-51
2021/12/30 01:06:51;;;;;;;;;;;;;;;11.85;90.69;101056.13;5047974;28;19928;-52
2021/12/30 01:09:18;;;;;;;;;;;;;;;11.82;90.66;101044.63;5031397;28;19921;-51
2021/12/30 01:11:46;;;;;;;;;;;;;;;11.79;90.77;101048.81;5032665;28;19967;-53
2021/12/30 01:14:18;;;;;;;;;;;;;;;11.76;90.83;101041.00;5032751;28;20007;-51
2021/12/30 01:16:48;;;;;;;;;;;;;;;11.73;91.07;101043.50;5033040;28;19921;-53
2021/12/30 01:21:42;;;;;;;;;;;;;;;11.69;91.17;101036.75;5032521;28;20005;-54
2021/12/30 01:24:09;;;;;;;;;;;;;;;11.67;91.11;101036.22;5032232;28;19968;-52
2021/12/30 01:26:35;;;;;;;;;;;;;;;11.65;91.25;101038.44;5032250;28;19967;-54
2021/12/30 01:29:03;;;;;;;;;;;;;;;11.63;91.26;101038.72;5032187;28;19936;-55
2021/12/30 01:31:29;;;;;;;;;;;;;;;11.62;91.36;101037.88;5032060;28;20011;-53
2021/12/30 01:34:16;;;;;;;;;;;;;;;11.60;91.43;101033.66;5033089;28;20286;-52
2021/12/30 01:36:42;;;;;;;;;;;;;;;11.58;91.40;101030.28;5032318;28;20432;-53
2021/12/30 01:39:10;;;;;;;;;;;;;;;11.54;91.57;101030.00;5032263;28;20028;-55
2021/12/30 01:41:36;;;;;;;;;;;;;;;11.51;91.59;101024.97;5032272;28;20011;-55
2021/12/30 01:44:03;;;;;;;;;;;;;;;11.46;91.51;101024.13;5032336;28;19921;-54
2021/12/30 01:46:38;;;;;;;;;;;;;;;11.39;91.54;101022.44;5033818;28;20024;-53
2021/12/30 01:49:04;;;;;;;;;;;;;;;11.35;91.67;101023.22;5036443;28;19943;-55
2021/12/30 01:51:31;;;;;;;;;;;;;;;11.34;91.74;101018.75;5036283;28;20015;-54
2021/12/30 01:53:58;;;;;;;;;;;;;;;11.28;91.76;101020.72;5035874;28;19971;-55
2021/12/30 01:56:25;;;;;;;;;;;;;;;11.25;91.95;101023.22;5035656;28;19956;-53
2021/12/30 01:58:53;;;;;;;;;;;;;;;11.25;91.84;101014.84;5036274;28;20453;-55
2021/12/30 02:01:20;;;;;;;;;;;;;;;11.24;91.81;101011.16;5055573;28;20003;-55
2021/12/30 02:03:47;;;;;;;;;;;;;;;11.24;91.89;101010.34;5055889;28;19921;-53
2021/12/30 02:06:14;;;;;;;;;;;;;;;11.23;91.83;101017.88;5050195;28;20356;-57
2021/12/30 02:08:40;;;;;;;;;;;;;;;11.21;91.76;101019.25;5036196;28;19960;-56
2021/12/30 02:11:07;;;;;;;;;;;;;;;11.20;91.76;101017.59;5035396;28;20036;-55
2021/12/30 02:13:34;;;;;;;;;;;;;;;11.19;91.62;101013.13;5035195;28;20020;-56
2021/12/30 02:16:02;;;;;;;;;;;;;;;11.20;91.73;101024.03;5035688;28;20334;-54
2021/12/30 02:18:29;;;;;;;;;;;;;;;11.24;91.73;101021.53;5034385;28;19960;-54
2021/12/30 02:21:00;;;;;;;;;;;;;;;11.26;91.66;101019.31;5035616;28;20400;-54
2021/12/30 02:23:28;;;;;;;;;;;;;;;11.27;91.54;101018.19;5035521;28;20476;-54
2021/12/30 02:25:57;;;;;;;;;;;;;;;11.29;91.59;101015.97;5034946;28;19921;-55
2021/12/30 02:28:28;;;;;;;;;;;;;;;11.31;91.34;101011.75;5035115;28;20019;-54
2021/12/30 02:30:56;;;;;;;;;;;;;;;11.41;91.49;101019.34;5034684;28;20436;-54
2021/12/30 02:33:23;;;;;;;;;;;;;;;11.52;91.12;101021.06;5035019;28;20444;-55
2021/12/30 02:35:51;;;;;;;;;;;;;;;11.62;91.03;101015.50;5034935;28;19928;-54
2021/12/30 02:38:18;;;;;;;;;;;;;;;11.76;90.81;101017.75;5034657;28;19920;-55
2021/12/30 02:40:48;;;;;;;;;;;;;;;11.85;90.58;101011.34;5033425;28;19925;-54
2021/12/30 02:43:17;;;;;;;;;;;;;;;11.92;90.12;101024.25;5034274;28;19967;-51
2021/12/30 02:45:44;;;;;;;;;;;;;;;11.87;89.43;101025.09;5034314;28;20437;-53
2021/12/30 02:48:14;;;;;;;;;;;;;;;11.72;89.38;101025.00;5034728;28;19975;-53
2021/12/30 02:50:42;;;;;;;;;;;;;;;11.56;89.53;101025.00;5045466;28;20302;-54
2021/12/30 02:53:08;;;;;;;;;;;;;;;11.50;89.71;101020.50;5039731;28;20004;-53
2021/12/30 02:55:35;;;;;;;;;;;;;;;11.49;89.69;101020.78;5034614;28;20011;-54
2021/12/30 02:58:02;;;;;;;;;;;;;;;11.48;89.69;101011.53;5048273;28;19932;-52
2021/12/30 03:00:29;;;;;;;;;;;;;;;11.45;89.60;101006.47;5034639;28;20037;-50
2021/12/30 03:02:56;;;;;;;;;;;;;;;11.43;89.51;101008.72;5034505;28;19964;-54
2021/12/30 03:05:24;;;;;;;;;;;;;;;11.42;89.35;101004.25;5045632;28;19927;-50
2021/12/30 03:07:51;;;;;;;;;;;;;;;11.39;89.61;101000.06;5039036;28;20015;-53
2021/12/30 03:10:21;;;;;;;;;;;;;;;11.41;89.55;100996.13;5034610;28;20031;-54
2021/12/30 03:13:03;;;;;;;;;;;;;;;11.37;89.39;100996.69;5034343;28;19980;-53
2021/12/30 03:15:32;;;;;;;;;;;;;;;11.32;89.46;100993.03;5034965;28;19995;-54
2021/12/30 03:17:59;;;;;;;;;;;;;;;11.31;89.53;100996.94;5034490;28;19925;-53
2021/12/30 03:20:26;;;;;;;;;;;;;;;11.29;89.56;100993.59;5034248;28;19964;-55
2021/12/30 03:22:52;;;;;;;;;;;;;;;11.30;89.57;100992.47;5049584;28;19964;-55
2021/12/30 03:25:19;;;;;;;;;;;;;;;11.30;89.59;100986.88;5052536;28;19921;-54
2021/12/30 03:27:45;;;;;;;;;;;;;;;11.27;89.40;100974.28;5054388;28;19964;-55
2021/12/30 03:30:14;;;;;;;;;;;;;;;11.24;89.43;100976.78;5050247;28;20013;-52
2021/12/30 03:32:41;;;;;;;;;;;;;;;11.20;89.40;100976.50;5034914;28;20027;-55
2021/12/30 03:35:08;;;;;;;;;;;;;;;11.17;89.36;100977.03;5034490;28;20007;-53
2021/12/30 03:37:35;;;;;;;;;;;;;;;11.12;89.49;100975.06;5034381;28;19924;-54
2021/12/30 03:40:05;;;;;;;;;;;;;;;11.06;89.31;100975.34;5033990;28;20019;-55
2021/12/30 03:42:32;;;;;;;;;;;;;;;10.99;89.25;100983.13;5033581;28;20455;-50
2021/12/30 03:45:00;;;;;;;;;;;;;;;10.95;89.58;100973.63;5033944;28;20024;-56
2021/12/30 03:47:27;;;;;;;;;;;;;;;10.86;89.34;100974.13;5033781;28;19925;-54
2021/12/30 03:49:54;;;;;;;;;;;;;;;10.80;89.50;100974.38;5034232;28;19927;-54
2021/12/30 03:52:27;;;;;;;;;;;;;;;10.76;89.57;100973.25;5042454;28;19960;-56
2021/12/30 03:54:54;;;;;;;;;;;;;;;10.73;89.72;100973.78;5053531;28;19995;-53
2021/12/30 03:57:21;;;;;;;;;;;;;;;10.73;89.77;100957.00;5070960;28;20407;-54
2021/12/30 03:59:47;;;;;;;;;;;;;;;10.73;89.82;100963.44;5033513;28;19928;-54
2021/12/30 04:02:14;;;;;;;;;;;;;;;10.77;89.86;100958.16;5033347;28;20017;-53
2021/12/30 04:04:41;;;;;;;;;;;;;;;10.81;89.85;100956.50;5040649;28;20007;-55
2021/12/30 04:07:08;;;;;;;;;;;;;;;10.85;89.79;100952.91;5052391;28;20015;-55
2021/12/30 04:09:37;;;;;;;;;;;;;;;10.90;89.67;100954.84;5039913;28;20346;-54
2021/12/30 04:12:04;;;;;;;;;;;;;;;10.92;89.70;100952.66;5052964;28;19996;-54
2021/12/30 04:14:30;;;;;;;;;;;;;;;10.92;89.68;100947.06;5044807;28;19921;-54
2021/12/30 04:16:57;;;;;;;;;;;;;;;10.93;89.38;100951.53;5033204;28;20011;-55
2021/12/30 04:19:24;;;;;;;;;;;;;;;10.95;89.22;100945.69;5033305;28;19924;-55
2021/12/30 04:21:54;;;;;;;;;;;;;;;10.95;89.16;100943.72;5033329;28;19924;-54
2021/12/30 04:24:21;;;;;;;;;;;;;;;10.98;89.06;100948.75;5033494;28;19928;-55
2021/12/30 04:26:48;;;;;;;;;;;;;;;11.02;89.04;100943.47;5033199;28;20333;-55
2021/12/30 04:29:14;;;;;;;;;;;;;;;11.04;88.76;100936.50;5033129;28;20011;-53
2021/12/30 04:31:41;;;;;;;;;;;;;;;11.07;88.65;100949.06;5033203;28;19984;-54
2021/12/30 04:34:08;;;;;;;;;;;;;;;11.07;88.47;100949.88;5033276;28;19950;-57
2021/12/30 04:36:35;;;;;;;;;;;;;;;11.02;88.20;100949.06;5048570;28;20356;-56
2021/12/30 04:39:02;;;;;;;;;;;;;;;10.96;88.25;100950.97;5032799;28;20021;-54
2021/12/30 04:41:29;;;;;;;;;;;;;;;10.94;88.35;100957.94;5033608;28;19925;-56
2021/12/30 04:43:55;;;;;;;;;;;;;;;10.93;88.46;100953.47;5033015;28;20015;-55
2021/12/30 04:46:22;;;;;;;;;;;;;;;10.91;88.36;100957.41;5032748;28;20020;-54
2021/12/30 04:48:50;;;;;;;;;;;;;;;10.89;88.31;100956.81;5032692;28;20399;-54
2021/12/30 04:51:17;;;;;;;;;;;;;;;10.86;88.44;100959.31;5045738;28;20015;-54
2021/12/30 04:53:44;;;;;;;;;;;;;;;10.86;88.51;100956.53;5043462;28;19927;-51
2021/12/30 04:56:11;;;;;;;;;;;;;;;10.82;88.40;100952.59;5052740;28;20030;-54
2021/12/30 04:58:37;;;;;;;;;;;;;;;10.80;88.51;100947.28;5038716;28;20020;-55
2021/12/30 05:01:04;;;;;;;;;;;;;;;10.76;88.39;100951.72;5032586;28;20440;-53
2021/12/30 05:03:31;;;;;;;;;;;;;;;10.81;88.50;100948.13;5032618;28;19920;-55
2021/12/30 05:05:58;;;;;;;;;;;;;;;10.87;88.37;100936.72;5032592;28;19925;-55
2021/12/30 05:08:25;;;;;;;;;;;;;;;10.90;88.42;100947.31;5032679;28;19960;-55
2021/12/30 05:10:52;;;;;;;;;;;;;;;10.93;88.62;100937.56;5032445;28;19927;-54
2021/12/30 05:13:19;;;;;;;;;;;;;;;10.97;88.50;100940.63;5032494;28;20016;-56
2021/12/30 05:15:49;;;;;;;;;;;;;;;10.97;88.40;100933.09;5043333;28;19921;-55
2021/12/30 05:18:16;;;;;;;;;;;;;;;10.98;88.39;100940.38;5052495;28;19920;-55
2021/12/30 05:20:43;;;;;;;;;;;;;;;10.99;88.27;100936.47;5033381;28;20016;-54
2021/12/30 05:23:11;;;;;;;;;;;;;;;10.97;88.24;100940.63;5042943;28;19968;-54
2021/12/30 05:25:38;;;;;;;;;;;;;;;11.02;88.37;100935.91;5054927;28;20415;-53
2021/12/30 05:28:05;;;;;;;;;;;;;;;11.07;88.30;100933.13;5056389;28;19927;-51
2021/12/30 05:30:32;;;;;;;;;;;;;;;11.12;88.17;100933.16;5042316;28;19952;-54
2021/12/30 05:32:59;;;;;;;;;;;;;;;11.18;87.94;100939.59;5036225;28;20020;-54
2021/12/30 05:35:26;;;;;;;;;;;;;;;11.22;87.99;100934.31;5036381;28;20011;-55
2021/12/30 05:37:52;;;;;;;;;;;;;;;11.24;88.10;100935.69;5036178;28;20021;-53
2021/12/30 05:40:20;;;;;;;;;;;;;;;11.14;87.81;100930.94;5051163;28;20007;-54
2021/12/30 05:42:47;;;;;;;;;;;;;;;10.98;87.94;100929.19;5056028;28;19967;-54
2021/12/30 05:45:14;;;;;;;;;;;;;;;10.82;88.11;100919.06;5036946;28;19968;-54
2021/12/30 05:47:42;;;;;;;;;;;;;;;10.64;88.16;100921.22;5036538;28;19925;-54
2021/12/30 05:50:09;;;;;;;;;;;;;;;10.51;88.68;100921.72;5036251;28;19953;-54
2021/12/30 05:52:36;;;;;;;;;;;;;;;10.43;88.84;100936.22;5035903;28;19975;-53
2021/12/30 05:55:04;;;;;;;;;;;;;;;10.32;89.08;100923.28;5035733;28;20019;-53
2021/12/30 05:57:30;;;;;;;;;;;;;;;10.23;89.34;100920.13;5036121;28;20036;-51
2021/12/30 05:59:57;;;;;;;;;;;;;;;10.13;89.52;100925.66;5035815;28;20011;-53
2021/12/30 06:02:24;;;;;;;;;;;;;;;10.07;89.51;100927.56;5035559;28;19972;-54
2021/12/30 06:04:51;;;;;;;;;;;;;;;10.00;89.75;100926.94;5036150;28;19921;-54
2021/12/30 06:07:18;;;;;;;;;;;;;;;9.98;89.85;100929.16;5035639;28;20019;-54
2021/12/30 06:09:44;;;;;;;;;;;;;;;9.97;90.04;100924.69;5035907;28;20015;-55
2021/12/30 06:12:11;;;;;;;;;;;;;;;10.01;90.32;100917.47;5035471;28;20015;-54
2021/12/30 06:14:38;;;;;;;;;;;;;;;10.05;90.06;100923.34;5035664;28;19959;-54
2021/12/30 06:17:05;;;;;;;;;;;;;;;10.09;90.31;100907.78;5035696;28;20344;-55
2021/12/30 06:19:32;;;;;;;;;;;;;;;10.07;90.06;100909.97;5036221;28;19921;-52
2021/12/30 06:22:00;;;;;;;;;;;;;;;10.09;90.36;100907.78;5050176;28;20019;-55
2021/12/30 06:24:26;;;;;;;;;;;;;;;10.12;90.19;100907.22;5052606;28;20346;-55
2021/12/30 06:26:53;;;;;;;;;;;;;;;10.19;90.20;100905.88;5055199;28;20027;-56
2021/12/30 06:29:20;;;;;;;;;;;;;;;10.20;90.07;100904.75;5068993;28;20031;-54
2021/12/30 06:31:47;;;;;;;;;;;;;;;10.21;90.37;100900.84;5035058;28;20387;-53
2021/12/30 06:34:14;;;;;;;;;;;;;;;10.27;90.23;100904.56;5067211;28;19929;-54
2021/12/30 06:36:41;;;;;;;;;;;;;;;10.33;90.10;100903.50;5035325;28;20016;-55
2021/12/30 06:39:07;;;;;;;;;;;;;;;10.44;90.21;100901.59;5035550;28;19960;-54
2021/12/30 06:41:34;;;;;;;;;;;;;;;10.54;89.97;100904.44;5035050;28;20023;-52
2021/12/30 06:44:03;;;;;;;;;;;;;;;10.56;90.11;100906.94;5035369;28;20325;-55
2021/12/30 06:46:30;;;;;;;;;;;;;;;10.53;89.87;100902.75;5034519;28;19921;-49
2021/12/30 06:48:56;;;;;;;;;;;;;;;10.49;89.88;100896.00;5035096;28;20355;-55
2021/12/30 06:51:26;;;;;;;;;;;;;;;10.48;90.04;100890.72;5034550;28;20036;-54
2021/12/30 06:53:55;;;;;;;;;;;;;;;10.52;89.94;100895.47;5034922;28;19939;-53
2021/12/30 06:56:22;;;;;;;;;;;;;;;10.62;90.10;100895.50;5035626;28;19920;-51
2021/12/30 06:58:49;;;;;;;;;;;;;;;10.76;90.15;100889.44;5034642;28;20306;-54
2021/12/30 07:01:16;;;;;;;;;;;;;;;10.85;90.08;100885.00;5048807;28;20011;-54
2021/12/30 07:03:43;;;;;;;;;;;;;;;10.93;90.08;100878.88;5034786;28;19956;-51
2021/12/30 07:06:11;;;;;;;;;;;;;;;10.94;89.88;100874.97;5048290;28;19920;-54
2021/12/30 07:08:37;;;;;;;;;;;;;;;10.98;89.85;100876.09;5054382;28;20288;-55
2021/12/30 07:11:04;;;;;;;;;;;;;;;11.00;89.74;100879.44;5054276;28;20012;-54
2021/12/30 07:13:31;;;;;;;;;;;;;;;11.04;89.77;100877.81;5035062;28;19960;-53
2021/12/30 07:15:58;;;;;;;;;;;;;;;11.10;89.90;100887.03;5034267;28;19960;-54
2021/12/30 07:18:24;;;;;;;;;;;;;;;11.12;89.82;100877.25;5034172;28;20023;-53
2021/12/30 07:20:51;;;;;;;;;;;;;;;11.14;89.64;100875.03;5034279;28;19921;-50
2021/12/30 07:23:18;;;;;;;;;;;;;;;11.14;89.68;100876.97;5033905;28;20393;-53
2021/12/30 07:25:44;;;;;;;;;;;;;;;11.13;89.56;100875.28;5044705;28;22033;-53
2021/12/30 07:28:11;;;;;;;;;;;;;;;10.96;89.41;100872.72;5053967;28;20011;-53
2021/12/30 07:30:38;;;;;;;;;;;;;;;10.86;89.61;100869.91;5044056;28;19921;-51
2021/12/30 07:33:06;;;;;;;;;;;;;;;10.88;89.69;100876.06;5033944;28;20361;-54
2021/12/30 07:35:34;;;;;;;;;;;;;;;10.93;89.76;100867.69;5033859;28;20028;-53
2021/12/30 07:38:01;;;;;;;;;;;;;;;10.95;89.67;100859.88;5033915;28;20016;-54
2021/12/30 07:40:28;;;;;;;;;;;;;;;10.92;89.45;100868.81;5033858;28;20455;-53
2021/12/30 07:42:57;;;;;;;;;;;;;;;10.83;89.31;100859.28;5033619;28;19963;-53
2021/12/30 07:45:24;;;;;;;;;;;;;;;10.70;89.07;100859.78;5052756;28;19920;-55
2021/12/30 07:47:50;;;;;;;;;;;;;;;10.58;89.21;100860.88;5052668;28;19921;-51
2021/12/30 07:50:17;;;;;;;;;;;;;;;10.48;89.08;100848.84;5044233;28;19927;-53
2021/12/30 07:52:44;;;;;;;;;;;;;;;10.40;89.23;100841.81;5033662;28;20029;-54
2021/12/30 07:55:13;;;;;;;;;;;;;;;10.33;89.12;100844.03;5033655;28;19921;-52
2021/12/30 07:57:41;;;;;;;;;;;;;;;10.29;89.18;100843.72;5033287;28;20388;-53
2021/12/30 08:00:09;;;;;;;;;;;;;;;10.24;89.21;100842.81;5033227;28;19920;-53
2021/12/30 08:02:36;;;;;;;;;;;;;;;10.16;89.33;100836.66;5033137;28;20015;-53
2021/12/30 08:05:03;;;;;;;;;;;;;;;10.10;89.54;100832.16;5033713;28;19975;-54
2021/12/30 08:07:29;;;;;;;;;;;;;;;10.07;89.76;100821.53;5032929;28;19921;-52
2021/12/30 08:09:56;;;;;;;;;;;;;;;10.04;89.89;100824.84;5033165;28;19956;-54
2021/12/30 08:12:23;;;;;;;;;;;;;;;10.04;90.04;100821.22;5032958;28;19963;-55
2021/12/30 08:14:49;;;;;;;;;;;;;;;10.06;89.96;100821.81;5033441;28;20367;-53
2021/12/30 08:17:16;;;;;;;;;;;;;;;10.11;90.15;100825.44;5032903;28;20399;-53
2021/12/30 08:19:43;;;;;;;;;;;;;;;10.20;90.21;100821.03;5033033;28;19956;-52
2021/12/30 08:22:10;;;;;;;;;;;;;;;10.30;89.91;100819.44;5033633;28;20019;-51
2021/12/30 08:24:41;;;;;;;;;;;;;;;10.46;90.01;100815.63;5033056;28;19935;-54
2021/12/30 08:27:12;;;;;;;;;;;;;;;10.59;89.79;100817.03;5032916;28;20017;-52
2021/12/30 08:29:39;;;;;;;;;;;;;;;10.77;89.76;100816.53;5032602;28;19952;-52
2021/12/30 08:32:08;;;;;;;;;;;;;;;10.97;89.02;100818.50;5051129;28;20070;-51
2021/12/30 08:34:35;;;;;;;;;;;;;;;11.13;88.31;100814.63;5051333;28;19967;-53
2021/12/30 08:37:02;;;;;;;;;;;;;;;11.27;87.65;100814.09;5053038;28;20296;-54
2021/12/30 08:39:29;;;;;;;;;;;;;;;11.36;87.10;100820.81;5051836;28;19920;-50
2021/12/30 08:41:58;;;;;;;;;;;;;;;11.49;86.76;100814.66;5051208;28;19959;-52
2021/12/30 08:44:26;;;;;;;;;;;;;;;11.73;86.02;100819.69;5032684;28;19952;-53
2021/12/30 08:46:53;;;;;;;;;;;;;;;11.89;85.56;100818.53;5032392;28;19968;-53
2021/12/30 08:49:21;;;;;;;;;;;;;;;12.08;84.87;100816.00;5032445;28;19975;-52
2021/12/30 08:51:48;;;;;;;;;;;;;;;12.25;84.12;100822.09;5032466;28;19927;-51
2021/12/30 08:54:14;;;;;;;;;;;;;;;12.44;84.28;100821.44;5039496;28;20019;-53
2021/12/30 08:56:41;;;;;;;;;;;;;;;12.56;82.46;100811.59;5033134;28;20028;-53
2021/12/30 08:59:08;;;;;;;;;;;;;;;12.79;83.52;100812.03;5032278;28;20344;-55
2021/12/30 09:01:34;;;;;;;;;;;;;;;13.12;83.87;100813.22;5032262;28;20404;-53
2021/12/30 09:04:03;;;;;;;;;;;;;;;13.59;83.52;100814.56;5032377;28;19925;-53
2021/12/30 09:06:30;;;;;;;;;;;;;;;14.26;82.18;100809.09;5046521;28;20095;-53
2021/12/30 09:08:56;;;;;;;;;;;;;;;14.82;80.01;100816.81;5052398;28;20011;-53
2021/12/30 09:11:25;;;;;;;;;;;;;;;15.20;78.83;100822.44;5052213;28;20275;-55
2021/12/30 09:13:52;;;;;;;;;;;;;;;15.67;77.40;100814.13;5051772;28;19921;-54
2021/12/30 09:16:19;;;;;;;;;;;;;;;15.96;75.94;100822.31;5034951;28;20019;-55
2021/12/30 09:18:47;;;;;;;;;;;;;;;16.27;73.58;100820.59;5032238;28;19925;-53
2021/12/30 09:21:14;;;;;;;;;;;;;;;16.41;72.67;100823.41;5032049;28;19981;-54
2021/12/30 09:23:41;;;;;;;;;;;;;;;16.50;71.03;100834.78;5032187;28;20439;-54
2021/12/30 09:26:08;;;;;;;;;;;;;;;16.69;68.47;100820.56;5032065;28;19921;-53
2021/12/30 09:28:35;;;;;;;;;;;;;;;16.83;68.30;100823.41;5032372;28;20016;-54
2021/12/30 09:31:02;;;;;;;;;;;;;;;17.05;67.58;100812.97;5032164;28;20365;-54
2021/12/30 09:33:28;;;;;;;;;;;;;;;17.35;69.14;100813.41;5032479;28;19968;-55
2021/12/30 09:35:55;;;;;;;;;;;;;;;17.97;68.63;100807.88;5044833;28;20494;-55
2021/12/30 09:38:22;;;;;;;;;;;;;;;18.45;66.21;100814.72;5047751;28;19952;-55
2021/12/30 09:40:49;;;;;;;;;;;;;;;18.62;63.88;100816.78;5032297;28;20313;-56
2021/12/30 09:43:16;;;;;;;;;;;;;;;18.74;63.67;100813.38;5032531;28;20345;-55
2021/12/30 09:45:42;;;;;;;;;;;;;;;19.33;65.52;100814.59;5032804;28;20356;-53
2021/12/30 09:48:11;;;;;;;;;;;;;;;19.65;63.04;100816.06;5032173;28;19924;-55
2021/12/30 09:50:42;;;;;;;;;;;;;;;19.96;62.99;100815.00;5030870;28;20455;-56
2021/12/30 09:53:10;;;;;;;;;;;;;;;20.45;63.81;100814.69;5032126;28;19998;-55
2021/12/30 09:55:37;;;;;;;;;;;;;;;21.42;61.97;100811.72;5050493;28;20138;-54
2021/12/30 09:58:05;;;;;;;;;;;;;;;21.56;60.34;100808.59;5050357;28;20015;-55
2021/12/30 10:00:32;;;;;;;;;;;;;;;22.21;59.25;100815.44;5051843;28;20023;-55
2021/12/30 10:02:59;;;;;;;;;;;;;;;22.72;57.95;100812.28;5037579;28;19921;-55
2021/12/30 10:05:29;;;;;;;;;;;;;;;23.07;57.94;100814.63;5031556;28;19921;-56
2021/12/30 10:08:11;;;;;;;;;;;;;;;23.19;56.91;100811.75;5033511;28;20004;-56
2021/12/30 10:10:39;;;;;;;;;;;;;;;23.70;57.41;100823.50;5035384;28;20345;-56
2021/12/30 10:13:23;;;;;;;;;;;;;;;23.67;57.06;100827.03;5035573;28;20031;-55
2021/12/30 10:16:10;;;;;;;;;;;;;;;23.97;57.57;100823.84;5035339;28;19921;-55
2021/12/30 10:18:55;;;;;;;;;;;;;;;24.93;58.58;100825.53;5035150;28;20383;-55
2021/12/30 10:21:22;;;;;;;;;;;;;;;25.48;58.04;100829.25;5036152;28;20011;-54
2021/12/30 10:23:53;;;;;;;;;;;;;;;26.43;58.43;100832.38;5035184;28;19943;-55
2021/12/30 10:26:20;;;;;;;;;;;;;;;27.41;58.19;100835.59;5035299;28;20003;-55
2021/12/30 10:28:53;;;;;;;;;;;;;;;27.85;58.34;100840.69;5034830;28;19921;-56
2021/12/30 10:31:27;;;;;;;;;;;;;;;28.48;58.56;100850.41;5035069;28;20428;-57
2021/12/30 10:33:53;;;;;;;;;;;;;;;28.91;57.66;100845.84;5035159;28;19924;-56
2021/12/30 10:36:25;;;;;;;;;;;;;;;29.29;58.29;100849.41;5034958;28;19964;-57
2021/12/30 10:38:53;;;;;;;;;;;;;;;29.71;58.08;100853.78;5054581;28;19971;-57
2021/12/30 10:41:24;;;;;;;;;;;;;;;30.06;57.14;100852.28;5053977;28;19920;-54
2021/12/30 10:43:54;;;;;;;;;;;;;;;30.40;57.20;100853.59;5054951;28;20372;-56
2021/12/30 10:46:22;;;;;;;;;;;;;;;30.74;56.16;100858.16;5054531;28;19921;-56
2021/12/30 10:48:50;;;;;;;;;;;;;;;30.87;55.89;100863.16;5054698;28;20309;-57
2021/12/30 10:51:16;;;;;;;;;;;;;;;30.95;54.52;100863.13;5042298;28;19967;-56
2021/12/30 10:53:43;;;;;;;;;;;;;;;31.05;54.74;100860.25;5035096;28;20091;-56
2021/12/30 10:56:19;;;;;;;;;;;;;;;31.46;54.38;100858.97;5034658;28;20011;-58
2021/12/30 10:58:46;;;;;;;;;;;;;;;31.70;53.79;100855.16;5034641;28;20015;-58
2021/12/30 11:01:17;;;;;;;;;;;;;;;32.12;53.60;100862.00;5034541;28;19972;-57
2021/12/30 11:03:54;;;;;;;;;;;;;;;32.63;53.29;100851.75;5034392;28;19931;-57
2021/12/30 11:06:23;;;;;;;;;;;;;;;32.91;52.47;100853.56;5034194;28;20022;-57
2021/12/30 11:09:04;;;;;;;;;;;;;;;33.11;51.96;100847.22;5034106;28;20047;-56
2021/12/30 11:11:30;;;;;;;;;;;;;;;33.34;51.41;100843.69;5034983;28;19921;-57
2021/12/30 11:14:00;;;;;;;;;;;;;;;33.55;51.15;100837.66;5034110;28;20019;-57
2021/12/30 11:16:26;;;;;;;;;;;;;;;33.88;51.44;100843.84;5034277;28;20007;-57
2021/12/30 11:18:56;;;;;;;;;;;;;;;34.17;51.06;100827.75;5033381;28;20279;-56
2021/12/30 11:21:39;;;;;;;;;;;;;;;34.18;50.80;100822.78;5034117;28;20007;-56
2021/12/30 11:24:07;;;;;;;;;;;;;;;33.66;50.00;100826.78;5033969;28;20372;-57
2021/12/30 11:26:34;;;;;;;;;;;;;;;33.78;50.34;100828.28;5033947;28;20011;-57
2021/12/30 11:29:02;;;;;;;;;;;;;;;34.62;49.79;100847.78;5042042;28;20036;-56
2021/12/30 11:31:30;;;;;;;;;;;;;;;35.23;49.28;100840.13;5033873;28;19967;-56
2021/12/30 11:33:58;;;;;;;;;;;;;;;35.36;48.22;100849.81;5033751;28;20373;-57
2021/12/30 11:36:28;;;;;;;;;;;;;;;35.24;47.32;100853.34;5033898;28;20394;-57
2021/12/30 11:38:58;;;;;;;;;;;;;;;35.37;46.94;100839.84;5033938;28;20015;-57
2021/12/30 11:41:28;;;;;;;;;;;;;;;35.73;47.09;100839.16;5033702;28;19925;-58
2021/12/30 11:43:55;;;;;;;;;;;;;;;36.02;46.38;100833.53;5033993;28;19925;-57
2021/12/30 11:46:36;;;;;;;;;;;;;;;36.29;45.55;100836.22;5038886;28;20016;-57
2021/12/30 11:49:06;;;;;;;;;;;;;;;36.51;45.04;100843.22;5050515;28;19924;-56
2021/12/30 11:51:43;;;;;;;;;;;;;;;36.41;45.09;100840.50;5052543;28;20011;-57
2021/12/30 11:54:29;;;;;;;;;;;;;;;36.47;44.72;100847.44;5038070;28;20003;-57
2021/12/30 11:57:15;;;;;;;;;;;;;;;36.60;43.93;100847.56;5041203;28;19995;-57
2021/12/30 11:59:41;;;;;;;;;;;;;;;36.45;43.41;100850.81;5052517;28;19954;-56
2021/12/30 12:02:26;;;;;;;;;;;;;;;36.37;42.80;100839.78;5052693;28;19927;-57
2021/12/30 12:04:53;;;;;;;;;;;;;;;36.37;42.36;100837.69;5053304;28;19921;-56
2021/12/30 12:07:22;;;;;;;;;;;;;;;36.63;42.16;100823.38;5037164;28;20020;-57
2021/12/30 12:09:49;;;;;;;;;;;;;;;36.63;43.32;100817.56;5033576;28;19967;-56
2021/12/30 12:12:36;;;;;;;;;;;;;;;36.81;41.91;100812.09;5045400;28;19927;-57
2021/12/30 12:15:03;;;;;;;;;;;;;;;36.83;42.38;100802.94;5053115;28;19948;-57
2021/12/30 12:17:38;;;;;;;;;;;;;;;37.19;42.39;100796.94;5053244;28;20018;-57
2021/12/30 12:20:12;;;;;;;;;;;;;;;37.40;42.11;100799.28;5045591;28;20385;-56
2021/12/30 12:22:39;;;;;;;;;;;;;;;36.59;41.62;100794.38;5033502;28;19928;-57
2021/12/30 12:25:14;;;;;;;;;;;;;;;35.82;41.15;100789.94;5033120;28;20012;-57
2021/12/30 12:27:48;;;;;;;;;;;;;;;35.27;41.28;100801.03;5033356;28;19968;-57
2021/12/30 12:30:44;;;;;;;;;;;;;;;35.25;41.41;100803.56;5036106;28;20432;-57
2021/12/30 12:33:27;;;;;;;;;;;;;;;35.89;41.54;100807.22;5056542;28;19927;-57
2021/12/30 12:35:55;;;;;;;;;;;;;;;36.25;40.66;100815.16;5039527;28;19952;-57
2021/12/30 12:38:39;;;;;;;;;;;;;;;36.60;40.81;100821.38;5032622;28;20027;-57
2021/12/30 12:41:26;;;;;;;;;;;;;;;37.11;39.96;100827.56;5032884;28;20023;-57
2021/12/30 12:44:02;;;;;;;;;;;;;;;37.66;39.75;100840.16;5033117;28;19921;-57